Time;durP1;ratioP1;P1;durP2;ratioP2;P2;SDS_P1;SDS_P2;PMS_P1;PMS_P2;Temp;Humidity;BMP_temperature;BMP_pressure;BME280_temperature;BME280_humidity;BME280_pressure;Samples;Min_cycle;Max_cycle;Signal;HPM_P1;HPM_P2
2021/08/24 00:01:40;;;;;;;0.32;0.32;;;16.00;99.90;;;;;;4400442;32;20565;-73
2021/08/24 00:04:07;;;;;;;0.37;0.37;;;16.00;99.90;;;;;;4399909;32;20137;-73
2021/08/24 00:06:32;;;;;;;0.28;0.28;;;16.00;99.90;;;;;;4400171;32;20125;-73
2021/08/24 00:08:58;;;;;;;1.37;1.02;;;15.90;99.90;;;;;;4399624;32;20075;-73
2021/08/24 00:11:23;;;;;;;0.20;0.20;;;15.90;99.90;;;;;;4400175;32;20082;-73
2021/08/24 00:13:49;;;;;;;0.77;0.77;;;15.90;99.90;;;;;;4401009;32;20073;-73
2021/08/24 00:16:17;;;;;;;0.30;0.30;;;15.90;99.90;;;;;;4399383;32;20066;-73
2021/08/24 00:18:43;;;;;;;0.30;0.30;;;15.90;99.90;;;;;;4400664;32;20078;-73
2021/08/24 00:21:09;;;;;;;0.30;0.30;;;15.90;99.90;;;;;;4400689;32;20519;-73
2021/08/24 00:23:34;;;;;;;0.70;0.40;;;15.80;99.90;;;;;;4400721;32;20161;-73
2021/08/24 00:26:00;;;;;;;0.30;0.30;;;15.80;99.90;;;;;;4400105;32;20066;-73
2021/08/24 00:28:26;;;;;;;0.32;0.32;;;15.80;99.90;;;;;;4400510;32;20070;-73
2021/08/24 00:30:52;;;;;;;0.30;0.30;;;15.70;99.90;;;;;;4399869;32;20070;-73
2021/08/24 00:33:19;;;;;;;0.55;0.30;;;15.70;99.90;;;;;;4399961;32;20536;-73
2021/08/24 00:35:45;;;;;;;1.02;0.93;;;15.70;99.90;;;;;;4399653;32;20548;-73
2021/08/24 00:38:15;;;;;;;0.30;0.30;;;15.60;99.90;;;;;;4400023;32;20380;-73
2021/08/24 00:40:41;;;;;;;0.85;0.82;;;15.60;99.90;;;;;;4400912;32;20463;-73
2021/08/24 00:43:09;;;;;;;5.62;0.55;;;15.70;99.90;;;;;;4399680;32;20078;-73
2021/08/24 00:45:36;;;;;;;0.30;0.30;;;15.60;99.90;;;;;;4399770;32;20087;-73
2021/08/24 00:48:02;;;;;;;0.30;0.30;;;15.50;99.90;;;;;;4399702;32;20074;-73
2021/08/24 00:50:34;;;;;;;0.20;0.20;;;15.50;99.90;;;;;;4399785;32;20066;-73
2021/08/24 00:53:02;;;;;;;1.10;0.50;;;15.50;99.90;;;;;;4399845;32;20065;-73
2021/08/24 00:55:28;;;;;;;0.20;0.20;;;15.40;99.90;;;;;;4399837;32;20510;-74
2021/08/24 00:57:58;;;;;;;0.40;0.40;;;15.30;99.90;;;;;;4400731;32;20083;-73
2021/08/24 01:00:25;;;;;;;0.35;0.35;;;15.30;99.90;;;;;;4400177;32;20472;-73
2021/08/24 01:02:51;;;;;;;0.30;0.30;;;15.20;99.90;;;;;;4399429;32;20069;-74
2021/08/24 01:05:16;;;;;;;0.80;0.80;;;15.20;99.90;;;;;;4399198;32;20129;-74
2021/08/24 01:07:49;;;;;;;2.62;0.95;;;15.10;99.90;;;;;;4399124;32;20503;-73
2021/08/24 01:10:26;;;;;;;0.30;0.30;;;15.00;99.90;;;;;;4399449;32;20070;-73
2021/08/24 01:12:57;;;;;;;0.62;0.55;;;15.00;99.90;;;;;;4400531;32;20129;-73
2021/08/24 01:15:38;;;;;;;0.40;0.40;;;14.90;99.90;;;;;;4400134;32;20417;-73
2021/08/24 01:18:05;;;;;;;;;;;15.00;99.90;;;;;;4399750;32;20515;-73
2021/08/24 01:21:00;;;;;;;0.30;0.30;;;14.90;99.90;;;;;;4398730;32;20423;-73
2021/08/24 01:23:52;;;;;;;0.40;0.40;;;14.90;99.90;;;;;;4387830;32;20147;-73
2021/08/24 01:26:26;;;;;;;0.30;0.30;;;14.90;99.90;;;;;;4387624;32;20607;-73
2021/08/24 01:29:20;;;;;;;2.22;0.93;;;14.80;99.90;;;;;;4398797;32;20094;-73
2021/08/24 01:32:12;;;;;;;2.12;0.70;;;14.80;99.90;;;;;;4389760;32;20526;-73
2021/08/24 01:35:19;;;;;;;0.22;0.22;;;14.70;99.90;;;;;;4399315;32;20090;-73
2021/08/24 01:38:06;;;;;;;0.70;0.60;;;14.70;99.90;;;;;;4387722;32;20131;-73
2021/08/24 01:40:42;;;;;;;0.20;0.20;;;14.70;99.90;;;;;;4399032;32;20067;-73
2021/08/24 01:43:13;;;;;;;0.30;0.30;;;14.70;99.90;;;;;;4399117;32;20626;-73
2021/08/24 01:45:44;;;;;;;0.32;0.32;;;14.60;99.90;;;;;;4398055;32;20078;-74
2021/08/24 01:48:19;;;;;;;0.30;0.30;;;14.60;99.90;;;;;;4398625;32;20138;-73
2021/08/24 01:50:51;;;;;;;0.30;0.30;;;14.50;99.90;;;;;;4399587;32;20049;-73
2021/08/24 01:53:23;;;;;;;0.40;0.40;;;14.50;99.90;;;;;;4399167;32;20121;-73
2021/08/24 01:55:53;;;;;;;0.40;0.40;;;14.50;99.90;;;;;;4398060;32;20121;-73
2021/08/24 01:58:26;;;;;;;0.90;0.90;;;14.50;99.90;;;;;;4383502;32;20551;-73
2021/08/24 02:00:56;;;;;;;5.78;0.57;;;14.50;99.90;;;;;;4383534;32;20943;-73
2021/08/24 02:03:41;;;;;;;4.27;0.73;;;14.40;99.90;;;;;;4384142;32;20511;-73
2021/08/24 02:06:33;;;;;;;0.35;0.35;;;14.30;99.90;;;;;;4384758;32;20082;-74
2021/08/24 02:09:05;;;;;;;0.22;0.22;;;14.30;99.90;;;;;;4372361;32;20166;-74
2021/08/24 02:11:32;;;;;;;0.35;0.35;;;14.30;99.90;;;;;;4383625;32;20121;-73
2021/08/24 02:14:02;;;;;;;0.98;0.40;;;14.30;99.90;;;;;;4383996;32;20071;-73
2021/08/24 02:16:31;;;;;;;0.32;0.32;;;14.30;99.90;;;;;;4383000;32;20455;-73
2021/08/24 02:19:03;;;;;;;0.30;0.30;;;14.20;99.90;;;;;;4383689;32;20499;-74
2021/08/24 02:21:35;;;;;;;2.05;0.52;;;14.30;99.90;;;;;;4384484;32;20058;-73
2021/08/24 02:24:05;;;;;;;0.30;0.30;;;14.20;99.90;;;;;;4383733;32;20091;-73
2021/08/24 02:26:33;;;;;;;0.90;0.85;;;14.20;99.90;;;;;;4386870;32;20117;-72
2021/08/24 02:29:00;;;;;;;0.45;0.45;;;14.20;99.90;;;;;;4386475;32;20074;-74
2021/08/24 02:31:52;;;;;;;0.20;0.20;;;14.20;99.90;;;;;;4385947;32;20534;-73
2021/08/24 02:34:22;;;;;;;0.30;0.30;;;14.20;99.90;;;;;;4378295;32;20087;-73
2021/08/24 02:37:00;;;;;;;0.43;0.43;;;14.20;99.90;;;;;;4402011;32;20066;-73
2021/08/24 02:39:33;;;;;;;0.20;0.20;;;14.20;99.90;;;;;;4402012;32;20441;-73
2021/08/24 02:42:12;;;;;;;0.20;0.20;;;14.20;99.90;;;;;;4401076;32;20075;-74
2021/08/24 02:44:43;;;;;;;0.37;0.37;;;14.10;99.90;;;;;;4400587;32;20070;-73
2021/08/24 02:47:09;;;;;;;0.30;0.30;;;14.10;99.90;;;;;;4400610;32;20563;-73
2021/08/24 02:49:35;;;;;;;0.40;0.40;;;14.10;99.90;;;;;;4401257;32;20113;-73
2021/08/24 02:52:04;;;;;;;0.30;0.30;;;14.20;99.90;;;;;;4400448;32;20075;-73
2021/08/24 02:54:34;;;;;;;0.40;0.40;;;14.10;99.90;;;;;;4401160;32;20082;-73
2021/08/24 02:57:01;;;;;;;0.55;0.55;;;14.00;99.90;;;;;;4401472;32;20425;-73
2021/08/24 02:59:28;;;;;;;0.85;0.85;;;14.00;99.90;;;;;;4400709;32;20073;-73
2021/08/24 03:01:54;;;;;;;0.50;0.50;;;14.10;99.90;;;;;;4400781;32;20425;-73
2021/08/24 03:04:19;;;;;;;0.32;0.32;;;14.00;99.90;;;;;;4400537;32;20082;-73
2021/08/24 03:06:48;;;;;;;0.40;0.40;;;14.00;99.90;;;;;;4401134;32;20069;-73
2021/08/24 03:09:17;;;;;;;0.50;0.50;;;14.00;99.90;;;;;;4400361;32;20073;-73
2021/08/24 03:11:51;;;;;;;0.40;0.40;;;14.10;99.90;;;;;;4400684;32;20070;-73
2021/08/24 03:14:32;;;;;;;0.28;0.28;;;14.10;99.90;;;;;;4400710;32;20074;-73
2021/08/24 03:17:03;;;;;;;;;;;14.10;99.90;;;;;;4400939;32;20145;-73
2021/08/24 03:19:32;;;;;;;0.75;0.40;;;14.10;99.90;;;;;;4401280;32;19957;-73
2021/08/24 03:22:00;;;;;;;0.35;0.35;;;14.10;99.90;;;;;;4400727;32;20090;-73
2021/08/24 03:24:27;;;;;;;0.57;0.50;;;14.20;99.90;;;;;;4400381;32;20421;-73
2021/08/24 03:26:52;;;;;;;0.28;0.28;;;14.10;99.90;;;;;;4400562;32;20078;-73
2021/08/24 03:29:21;;;;;;;0.52;0.52;;;14.10;99.90;;;;;;4401251;32;20140;-73
2021/08/24 03:31:51;;;;;;;0.20;0.20;;;14.00;99.90;;;;;;4400124;32;20550;-73
2021/08/24 03:34:17;;;;;;;0.50;0.50;;;14.00;99.90;;;;;;4400754;32;20550;-73
2021/08/24 03:36:43;;;;;;;2.37;1.12;;;14.00;99.90;;;;;;4399227;32;20132;-73
2021/08/24 03:39:09;;;;;;;0.30;0.30;;;14.00;99.90;;;;;;4400416;32;20070;-73
2021/08/24 03:41:34;;;;;;;0.50;0.50;;;13.90;99.90;;;;;;4400604;32;20078;-73
2021/08/24 03:44:00;;;;;;;1.33;0.70;;;13.90;99.90;;;;;;4401104;32;20082;-73
2021/08/24 03:46:25;;;;;;;0.40;0.40;;;13.90;99.90;;;;;;4401136;32;20146;-73
2021/08/24 03:48:51;;;;;;;0.45;0.45;;;13.90;99.90;;;;;;4399611;32;20086;-73
2021/08/24 03:51:16;;;;;;;0.30;0.30;;;13.90;99.90;;;;;;4400330;32;20279;-73
2021/08/24 03:53:41;;;;;;;0.20;0.20;;;13.90;99.90;;;;;;4400015;32;20065;-73
2021/08/24 03:56:08;;;;;;;0.40;0.40;;;13.90;99.90;;;;;;4400313;32;20069;-73
2021/08/24 03:58:35;;;;;;;2.40;0.50;;;13.90;99.90;;;;;;4400064;32;20499;-73
2021/08/24 04:01:01;;;;;;;0.98;0.40;;;13.90;99.90;;;;;;4399718;32;20066;-73
2021/08/24 04:03:28;;;;;;;0.88;0.40;;;13.80;99.90;;;;;;4399968;32;20061;-73
2021/08/24 04:06:02;;;;;;;0.30;0.30;;;13.80;99.90;;;;;;4400111;32;20062;-73
2021/08/24 04:08:27;;;;;;;0.40;0.40;;;13.90;99.90;;;;;;4400299;32;20069;-73
2021/08/24 04:10:53;;;;;;;0.82;0.52;;;13.90;99.90;;;;;;4400261;32;20077;-73
2021/08/24 04:13:19;;;;;;;0.20;0.20;;;13.80;99.90;;;;;;4399979;32;20069;-73
2021/08/24 04:15:44;;;;;;;0.60;0.60;;;13.80;99.90;;;;;;4399182;32;20078;-73
2021/08/24 04:18:10;;;;;;;0.30;0.30;;;13.80;99.90;;;;;;4400297;32;20066;-73
2021/08/24 04:20:38;;;;;;;0.20;0.20;;;13.70;99.90;;;;;;4398842;32;20061;-73
2021/08/24 04:23:03;;;;;;;0.30;0.30;;;13.70;99.90;;;;;;4394744;32;20069;-73
2021/08/24 04:25:29;;;;;;;0.30;0.30;;;13.80;99.90;;;;;;4397112;32;20511;-73
2021/08/24 04:27:54;;;;;;;0.30;0.30;;;13.70;99.90;;;;;;4399756;32;20090;-73
2021/08/24 04:30:20;;;;;;;0.20;0.20;;;13.70;99.90;;;;;;4399162;32;20069;-73
2021/08/24 04:32:47;;;;;;;0.37;0.37;;;13.70;99.90;;;;;;4399568;32;20058;-73
2021/08/24 04:35:15;;;;;;;4.05;1.02;;;13.70;99.90;;;;;;4400944;32;20337;-73
2021/08/24 04:37:40;;;;;;;0.30;0.30;;;13.70;99.90;;;;;;4400014;32;20090;-73
2021/08/24 04:40:07;;;;;;;2.08;1.30;;;13.70;99.90;;;;;;4401019;32;20551;-73
2021/08/24 04:42:33;;;;;;;2.40;1.05;;;13.70;99.90;;;;;;4400794;32;20244;-73
2021/08/24 04:44:58;;;;;;;1.17;0.32;;;13.70;99.90;;;;;;4399076;32;20081;-73
2021/08/24 04:47:24;;;;;;;0.30;0.30;;;13.80;99.90;;;;;;4399058;32;20129;-73
2021/08/24 04:49:50;;;;;;;0.40;0.40;;;13.80;99.90;;;;;;4399514;32;20121;-73
2021/08/24 04:52:15;;;;;;;0.45;0.40;;;13.70;99.90;;;;;;4398248;32;20132;-73
2021/08/24 04:54:41;;;;;;;0.40;0.40;;;13.70;99.90;;;;;;4397734;32;20065;-73
2021/08/24 04:57:07;;;;;;;0.40;0.40;;;13.80;99.90;;;;;;4399477;32;20431;-73
2021/08/24 04:59:33;;;;;;;0.20;0.20;;;13.80;99.90;;;;;;4397685;32;20066;-73
2021/08/24 05:01:59;;;;;;;0.28;0.28;;;13.80;99.90;;;;;;4388839;32;20085;-73
2021/08/24 05:04:24;;;;;;;1.17;0.45;;;13.80;99.90;;;;;;4396209;32;20407;-73
2021/08/24 05:06:51;;;;;;;0.30;0.30;;;13.90;99.90;;;;;;4399070;32;20516;-73
2021/08/24 05:09:16;;;;;;;0.32;0.32;;;13.90;99.90;;;;;;4398249;32;20424;-73
2021/08/24 05:11:42;;;;;;;0.88;0.85;;;14.00;99.90;;;;;;4396501;32;20121;-73
2021/08/24 05:14:07;;;;;;;0.25;0.25;;;14.10;99.90;;;;;;4396547;32;20077;-73
2021/08/24 05:16:33;;;;;;;0.30;0.30;;;14.10;99.90;;;;;;4391402;32;20408;-73
2021/08/24 05:18:58;;;;;;;0.40;0.40;;;14.10;99.90;;;;;;4384876;32;20081;-73
2021/08/24 05:21:24;;;;;;;0.20;0.20;;;14.10;99.90;;;;;;4397142;32;20128;-73
2021/08/24 05:23:49;;;;;;;0.30;0.30;;;14.00;99.90;;;;;;4396926;32;20070;-73
2021/08/24 05:26:19;;;;;;;0.30;0.30;;;14.00;99.90;;;;;;4387502;32;20107;-73
2021/08/24 05:28:48;;;;;;;0.40;0.40;;;14.00;99.90;;;;;;4386382;32;20090;-73
2021/08/24 05:31:14;;;;;;;0.50;0.50;;;14.10;99.90;;;;;;4377389;32;20098;-72
2021/08/24 05:33:40;;;;;;;0.30;0.30;;;14.10;99.90;;;;;;4385123;32;20085;-72
2021/08/24 05:36:06;;;;;;;0.40;0.37;;;14.10;99.90;;;;;;4396217;32;20535;-73
2021/08/24 05:38:32;;;;;;;0.60;0.60;;;14.20;99.90;;;;;;4395494;32;20059;-73
2021/08/24 05:40:58;;;;;;;0.50;0.50;;;14.20;99.90;;;;;;4396178;32;20089;-72
2021/08/24 05:43:25;;;;;;;0.30;0.30;;;14.20;99.90;;;;;;4391278;32;20318;-74
2021/08/24 05:45:57;;;;;;;0.20;0.20;;;14.20;99.90;;;;;;4391875;32;20082;-73
2021/08/24 05:48:25;;;;;;;0.30;0.30;;;14.30;99.90;;;;;;4391108;32;20169;-74
2021/08/24 05:50:51;;;;;;;1.40;0.40;;;14.30;99.90;;;;;;4389781;32;20449;-74
2021/08/24 05:53:17;;;;;;;1.95;0.60;;;14.40;99.90;;;;;;4382160;32;20082;-74
2021/08/24 05:55:43;;;;;;;0.30;0.30;;;14.40;99.90;;;;;;4384534;32;20177;-73
2021/08/24 05:58:09;;;;;;;0.30;0.30;;;14.50;99.90;;;;;;4384527;32;20070;-75
2021/08/24 06:00:37;;;;;;;0.30;0.30;;;14.50;99.90;;;;;;4380101;32;20816;-73
2021/08/24 06:03:03;;;;;;;0.30;0.30;;;14.50;99.90;;;;;;4376410;32;20094;-73
2021/08/24 06:05:28;;;;;;;0.60;0.60;;;14.60;99.90;;;;;;4379982;32;20500;-73
2021/08/24 06:07:54;;;;;;;0.50;0.50;;;14.60;99.90;;;;;;4376403;32;20101;-74
2021/08/24 06:10:19;;;;;;;0.40;0.40;;;14.60;99.90;;;;;;4383366;32;20069;-74
2021/08/24 06:12:45;;;;;;;0.60;0.60;;;14.70;99.90;;;;;;4385989;32;20510;-74
2021/08/24 06:15:10;;;;;;;0.37;0.37;;;14.80;99.90;;;;;;4389324;32;20066;-74
2021/08/24 06:17:36;;;;;;;0.28;0.28;;;14.80;99.90;;;;;;4389129;32;20146;-74
2021/08/24 06:20:02;;;;;;;7.47;1.02;;;14.90;99.90;;;;;;4388093;32;20141;-74
2021/08/24 06:22:28;;;;;;;0.30;0.30;;;14.90;99.90;;;;;;4385658;32;103153;-73
2021/08/24 06:24:53;;;;;;;0.30;0.30;;;15.00;99.90;;;;;;4393570;32;20365;-73
2021/08/24 06:27:19;;;;;;;0.25;0.25;;;15.10;99.90;;;;;;4390266;32;20067;-73
2021/08/24 06:29:44;;;;;;;0.40;0.40;;;15.20;99.90;;;;;;4394404;32;20530;-73
2021/08/24 06:32:31;;;;;;;0.37;0.37;;;15.20;99.90;;;;;;4388795;32;20132;-73
2021/08/24 06:34:57;;;;;;;0.30;0.30;;;15.30;99.90;;;;;;4381023;32;20062;-73
2021/08/24 06:37:23;;;;;;;0.30;0.30;;;15.40;99.90;;;;;;4390801;32;20144;-73
2021/08/24 06:39:48;;;;;;;0.30;0.30;;;15.50;99.90;;;;;;4391893;32;20459;-74
2021/08/24 06:42:14;;;;;;;0.30;0.30;;;15.50;99.90;;;;;;4389454;32;20882;-74
2021/08/24 06:44:39;;;;;;;2.22;1.02;;;15.50;99.90;;;;;;4388740;32;20087;-74
2021/08/24 06:47:05;;;;;;;0.35;0.35;;;15.60;99.90;;;;;;4385166;32;20426;-74
2021/08/24 06:49:33;;;;;;;10.52;1.98;;;15.60;99.90;;;;;;4384301;32;20125;-74
2021/08/24 06:51:59;;;;;;;0.30;0.30;;;15.70;99.90;;;;;;4388377;32;20073;-74
2021/08/24 06:54:25;;;;;;;0.75;0.75;;;15.70;99.90;;;;;;4386681;32;20079;-74
2021/08/24 06:56:51;;;;;;;0.30;0.30;;;15.90;99.90;;;;;;4386993;32;20206;-73
2021/08/24 06:59:17;;;;;;;0.28;0.28;;;16.00;99.90;;;;;;4392226;32;20416;-74
2021/08/24 07:01:43;;;;;;;1.33;0.50;;;16.00;99.90;;;;;;4389969;32;20074;-74
2021/08/24 07:04:09;;;;;;;0.40;0.40;;;16.10;99.90;;;;;;4386802;32;20400;-75
2021/08/24 07:06:34;;;;;;;0.50;0.50;;;16.10;99.90;;;;;;4389904;32;20079;-74
2021/08/24 07:09:00;;;;;;;0.93;0.50;;;16.20;99.90;;;;;;4387169;32;20097;-75
2021/08/24 07:11:26;;;;;;;0.35;0.35;;;16.30;99.90;;;;;;4390112;32;20066;-74
2021/08/24 07:13:54;;;;;;;0.30;0.30;;;16.30;99.90;;;;;;4390868;32;20125;-74
2021/08/24 07:16:20;;;;;;;0.40;0.40;;;16.30;99.90;;;;;;4384874;32;20554;-74
2021/08/24 07:18:45;;;;;;;0.30;0.30;;;16.40;99.90;;;;;;4389516;32;20161;-75
2021/08/24 07:21:15;;;;;;;1.12;0.47;;;16.50;99.90;;;;;;4388177;32;20728;-75
2021/08/24 07:23:41;;;;;;;0.35;0.35;;;16.50;99.90;;;;;;4387776;32;20476;-73
2021/08/24 07:26:07;;;;;;;0.30;0.30;;;16.50;99.90;;;;;;4390942;32;20078;-73
2021/08/24 07:28:32;;;;;;;0.57;0.50;;;16.60;99.90;;;;;;4387945;32;20090;-74
2021/08/24 07:30:58;;;;;;;0.20;0.20;;;16.60;99.90;;;;;;4390957;32;20416;-74
2021/08/24 07:33:24;;;;;;;0.30;0.30;;;16.80;99.90;;;;;;4392328;32;20128;-74
2021/08/24 07:35:50;;;;;;;0.82;0.82;;;17.00;99.90;;;;;;4390059;32;20190;-74
2021/08/24 07:38:16;;;;;;;0.30;0.30;;;17.00;99.90;;;;;;4389041;32;20455;-75
2021/08/24 07:40:42;;;;;;;0.47;0.47;;;17.10;99.90;;;;;;4390126;32;20085;-74
2021/08/24 07:43:08;;;;;;;0.30;0.30;;;17.20;99.90;;;;;;4392617;32;20811;-73
2021/08/24 07:45:34;;;;;;;0.30;0.30;;;17.20;99.90;;;;;;4392903;32;20098;-73
2021/08/24 07:47:59;;;;;;;0.47;0.47;;;17.20;99.90;;;;;;4391345;32;20629;-73
2021/08/24 07:50:25;;;;;;;0.30;0.30;;;17.30;99.90;;;;;;4380147;32;20066;-73
2021/08/24 07:52:51;;;;;;;0.68;0.68;;;17.40;99.90;;;;;;4383430;32;20399;-73
2021/08/24 07:55:17;;;;;;;0.30;0.30;;;17.40;99.90;;;;;;4385722;32;20141;-73
2021/08/24 07:57:43;;;;;;;0.90;0.40;;;17.40;99.90;;;;;;4383604;32;20149;-73
2021/08/24 08:00:09;;;;;;;1.20;0.40;;;17.60;99.90;;;;;;4384209;32;20667;-72
2021/08/24 08:02:35;;;;;;;0.30;0.30;;;17.70;99.90;;;;;;4383013;32;21064;-73
2021/08/24 08:05:00;;;;;;;1.95;0.93;;;17.70;99.90;;;;;;4384154;32;20102;-73
2021/08/24 08:07:25;;;;;;;0.20;0.20;;;17.80;99.90;;;;;;4386610;32;20091;-73
2021/08/24 08:09:51;;;;;;;0.40;0.40;;;17.80;99.90;;;;;;4386720;32;20090;-73
2021/08/24 08:12:19;;;;;;;0.30;0.30;;;17.80;99.90;;;;;;4386067;32;20077;-73
2021/08/24 08:14:45;;;;;;;0.60;0.60;;;17.80;99.90;;;;;;4385650;32;21511;-72
2021/08/24 08:17:11;;;;;;;0.45;0.45;;;17.90;99.90;;;;;;4387084;32;20186;-73
2021/08/24 08:19:38;;;;;;;0.22;0.22;;;18.00;99.90;;;;;;4383075;32;21097;-72
2021/08/24 08:22:04;;;;;;;0.32;0.32;;;18.10;99.90;;;;;;4386169;32;20113;-72
2021/08/24 08:24:30;;;;;;;0.32;0.32;;;18.20;99.90;;;;;;4388401;32;20103;-72
2021/08/24 08:26:56;;;;;;;0.30;0.30;;;18.30;99.90;;;;;;4384244;32;20965;-72
2021/08/24 08:29:21;;;;;;;0.30;0.30;;;18.30;99.90;;;;;;4383617;32;20141;-72
2021/08/24 08:31:48;;;;;;;0.60;0.60;;;18.30;99.90;;;;;;4387307;32;20081;-72
2021/08/24 08:34:14;;;;;;;0.32;0.32;;;18.50;99.90;;;;;;4381926;32;20089;-73
2021/08/24 08:36:40;;;;;;;3.20;0.52;;;18.50;99.90;;;;;;4383300;32;20501;-72
2021/08/24 08:39:06;;;;;;;0.30;0.30;;;18.50;99.90;;;;;;4384217;32;20794;-72
2021/08/24 08:41:41;;;;;;;0.30;0.30;;;18.50;99.90;;;;;;4382243;32;20581;-72
2021/08/24 08:44:36;;;;;;;0.20;0.20;;;18.60;99.90;;;;;;4384817;32;20154;-73
2021/08/24 08:47:22;;;;;;;0.75;0.75;;;18.60;99.90;;;;;;4384497;32;20189;-73
2021/08/24 08:49:56;;;;;;;0.22;0.22;;;18.70;99.90;;;;;;4381154;32;20137;-72
2021/08/24 08:52:43;;;;;;;0.20;0.20;;;18.70;99.90;;;;;;4383218;32;20110;-73
2021/08/24 08:55:33;;;;;;;0.30;0.30;;;18.60;99.90;;;;;;4363255;32;20492;-72
2021/08/24 08:58:06;;;;;;;0.30;0.30;;;18.70;99.90;;;;;;4378003;32;20121;-73
2021/08/24 09:00:45;;;;;;;0.20;0.20;;;18.80;99.90;;;;;;4393513;32;20061;-73
2021/08/24 09:03:16;;;;;;;0.30;0.30;;;18.90;99.90;;;;;;4396024;32;20062;-73
2021/08/24 09:05:42;;;;;;;1.35;0.82;;;19.20;99.90;;;;;;4396855;32;20077;-72
2021/08/24 09:08:08;;;;;;;0.30;0.30;;;19.30;99.90;;;;;;4392787;32;20449;-72
2021/08/24 09:10:40;;;;;;;0.30;0.30;;;19.30;99.90;;;;;;4388508;32;20071;-72
2021/08/24 09:13:11;;;;;;;0.22;0.22;;;19.20;99.90;;;;;;4386060;32;20499;-72
2021/08/24 09:15:43;;;;;;;0.25;0.25;;;19.20;99.90;;;;;;4389018;32;20066;-72
2021/08/24 09:18:15;;;;;;;0.32;0.32;;;19.20;99.90;;;;;;4391874;32;20090;-72
2021/08/24 09:20:59;;;;;;;0.30;0.30;;;19.20;99.90;;;;;;4386737;32;20568;-73
2021/08/24 09:23:24;;;;;;;0.45;0.25;;;19.10;99.90;;;;;;4391798;32;20184;-73
2021/08/24 09:26:03;;;;;;;0.22;0.22;;;19.10;99.90;;;;;;4390311;32;20069;-73
2021/08/24 09:28:31;;;;;;;0.20;0.20;;;19.10;99.90;;;;;;4386152;32;20081;-72
2021/08/24 09:30:57;;;;;;;0.25;0.25;;;19.10;99.90;;;;;;4383541;32;20588;-74
2021/08/24 09:33:25;;;;;;;0.35;0.35;;;19.10;99.90;;;;;;4386563;32;20070;-75
2021/08/24 09:35:50;;;;;;;0.20;0.20;;;19.30;99.90;;;;;;4387864;32;20078;-73
2021/08/24 09:38:27;;;;;;;0.28;0.28;;;19.40;99.90;;;;;;4386640;32;20087;-73
2021/08/24 09:40:57;;;;;;;0.30;0.30;;;19.70;99.90;;;;;;4391450;32;20389;-73
2021/08/24 09:43:33;;;;;;;2.83;0.30;;;19.90;99.90;;;;;;4391749;32;20067;-73
2021/08/24 09:46:05;;;;;;;0.20;0.20;;;20.00;99.90;;;;;;4389588;32;20093;-73
2021/08/24 09:48:52;;;;;;;0.30;0.30;;;20.00;99.90;;;;;;4391113;32;20074;-73
2021/08/24 09:51:31;;;;;;;0.30;0.30;;;19.80;99.90;;;;;;4378919;32;20128;-73
2021/08/24 09:53:58;;;;;;;0.30;0.30;;;19.60;99.90;;;;;;4387442;32;20208;-74
2021/08/24 09:56:31;;;;;;;0.30;0.30;;;19.60;99.90;;;;;;4389871;32;20189;-74
2021/08/24 09:58:57;;;;;;;0.37;0.37;;;19.70;99.90;;;;;;4392802;32;20070;-74
2021/08/24 10:01:23;;;;;;;0.20;0.20;;;19.70;99.90;;;;;;4392590;32;20085;-76
2021/08/24 10:04:05;;;;;;;0.20;0.20;;;20.00;99.90;;;;;;4391308;32;20070;-74
2021/08/24 10:06:34;;;;;;;1.25;0.50;;;20.20;99.90;;;;;;4395411;32;20400;-73
2021/08/24 10:09:25;;;;;;;0.20;0.20;;;20.60;99.90;;;;;;4394057;32;20292;-75
2021/08/24 10:11:51;;;;;;;0.30;0.30;;;20.70;99.90;;;;;;4378553;32;20222;-74
2021/08/24 10:14:24;;;;;;;0.25;0.25;;;20.90;99.90;;;;;;4390015;32;20689;-73
2021/08/24 10:16:55;;;;;;;0.20;0.20;;;21.10;99.90;;;;;;4389674;32;20083;-73
2021/08/24 10:19:25;;;;;;;0.43;0.43;;;21.30;99.90;;;;;;4389751;32;20650;-74
2021/08/24 10:21:57;;;;;;;0.28;0.13;;;21.30;99.10;;;;;;4384947;32;20098;-72
2021/08/24 10:24:35;;;;;;;0.20;0.20;;;21.30;98.70;;;;;;4387481;32;20641;-73
2021/08/24 10:27:06;;;;;;;0.28;0.28;;;21.40;99.10;;;;;;4388756;32;20078;-72
2021/08/24 10:29:37;;;;;;;0.10;0.10;;;21.50;99.30;;;;;;4388435;32;20413;-73
2021/08/24 10:32:06;;;;;;;0.20;0.20;;;21.80;98.10;;;;;;4389993;32;20196;-72
2021/08/24 10:34:39;;;;;;;0.20;0.20;;;22.00;97.50;;;;;;4391653;32;20339;-72
2021/08/24 10:37:26;;;;;;;2.30;0.25;;;22.40;97.70;;;;;;4386209;32;20161;-73
2021/08/24 10:40:13;;;;;;;1.35;0.65;;;22.50;95.80;;;;;;4371008;32;20693;-72
2021/08/24 10:42:57;;;;;;;0.30;0.30;;;22.70;96.20;;;;;;4378106;32;20560;-72
2021/08/24 10:45:27;;;;;;;1.55;0.52;;;23.00;96.10;;;;;;4389160;32;20126;-72
2021/08/24 10:47:56;;;;;;;0.30;0.30;;;22.90;96.00;;;;;;4388015;32;20102;-73
2021/08/24 10:50:28;;;;;;;0.17;0.17;;;23.20;96.40;;;;;;4389824;32;20268;-73
2021/08/24 10:53:02;;;;;;;0.22;0.22;;;23.40;95.20;;;;;;4390208;32;20086;-72
2021/08/24 10:55:32;;;;;;;0.35;0.30;;;22.80;96.40;;;;;;4383351;32;20105;-72
2021/08/24 10:58:06;;;;;;;0.10;0.10;;;23.00;96.60;;;;;;4385011;32;20182;-72
2021/08/24 11:00:43;;;;;;;2.53;0.85;;;22.70;94.80;;;;;;4385348;32;20341;-73
2021/08/24 11:03:35;;;;;;;0.40;0.40;;;22.30;96.00;;;;;;4388316;32;20824;-73
2021/08/24 11:06:12;;;;;;;0.20;0.20;;;22.40;95.40;;;;;;4390006;32;20074;-73
2021/08/24 11:08:53;;;;;;;0.20;0.20;;;22.90;95.70;;;;;;4389322;32;20105;-73
2021/08/24 11:11:45;;;;;;;1.48;0.50;;;23.40;95.00;;;;;;4383311;32;21120;-73
2021/08/24 11:14:25;;;;;;;0.30;0.30;;;23.20;93.90;;;;;;4377394;32;20526;-72
2021/08/24 11:17:19;;;;;;;0.45;0.30;;;22.60;94.90;;;;;;4383105;32;20102;-72
2021/08/24 11:20:06;;;;;;;0.10;0.10;;;22.60;94.90;;;;;;4389401;32;20587;-73
2021/08/24 11:23:07;;;;;;;0.10;0.10;;;23.10;94.10;;;;;;4389766;32;20069;-73
2021/08/24 11:25:42;;;;;;;0.10;0.10;;;23.50;94.20;;;;;;4385145;32;20405;-73
2021/08/24 11:28:18;;;;;;;0.10;0.10;;;23.80;93.90;;;;;;4390884;32;20593;-73
2021/08/24 11:31:01;;;;;;;0.20;0.20;;;24.20;91.00;;;;;;4390573;32;20135;-73
2021/08/24 11:33:32;;;;;;;0.10;0.10;;;24.30;91.00;;;;;;4389934;32;20101;-73
2021/08/24 11:36:03;;;;;;;0.00;0.00;;;24.30;90.80;;;;;;4390339;32;20136;-73
2021/08/24 11:38:34;;;;;;;1.40;0.30;;;24.50;87.80;;;;;;4386661;32;20078;-73
2021/08/24 11:41:06;;;;;;;0.10;0.10;;;24.60;87.00;;;;;;4390905;32;20090;-73
2021/08/24 11:43:46;;;;;;;0.00;0.00;;;24.60;86.20;;;;;;4392279;32;20093;-75
2021/08/24 11:46:25;;;;;;;0.10;0.10;;;24.60;87.90;;;;;;4390836;32;20487;-73
2021/08/24 11:49:19;;;;;;;0.10;0.10;;;25.00;87.20;;;;;;4385322;32;20109;-73
2021/08/24 11:52:09;;;;;;;2.17;0.20;;;25.20;85.70;;;;;;4375199;32;20091;-74
2021/08/24 11:55:05;;;;;;;0.17;0.17;;;25.60;84.50;;;;;;4390033;32;20074;-75
2021/08/24 11:57:40;;;;;;;0.00;0.00;;;25.80;83.70;;;;;;4379713;32;20062;-74
2021/08/24 12:00:07;;;;;;;0.00;0.00;;;26.10;84.80;;;;;;4391962;32;20066;-75
2021/08/24 12:02:38;;;;;;;0.10;0.10;;;26.40;83.50;;;;;;4393884;32;20069;-75
2021/08/24 12:05:11;;;;;;;9.93;0.35;;;26.70;84.10;;;;;;4392990;32;20086;-75
2021/08/24 12:07:40;;;;;;;0.60;0.47;;;27.00;81.00;;;;;;4386330;32;20082;-75
2021/08/24 12:10:30;;;;;;;0.43;0.25;;;25.90;81.90;;;;;;4387922;32;20563;-75
2021/08/24 12:12:59;;;;;;;0.10;0.10;;;24.90;86.70;;;;;;4380813;32;20182;-75
2021/08/24 12:15:30;;;;;;;3.62;0.17;;;24.50;88.40;;;;;;4391782;32;20528;-75
2021/08/24 12:18:06;;;;;;;0.10;0.10;;;24.90;86.50;;;;;;4392412;32;20066;-75
2021/08/24 12:20:43;;;;;;;0.08;0.08;;;25.10;87.60;;;;;;4390203;32;20071;-74
2021/08/24 12:23:14;;;;;;;0.10;0.10;;;25.80;83.90;;;;;;4388894;32;20090;-75
2021/08/24 12:25:43;;;;;;;0.22;0.22;;;26.10;82.00;;;;;;4391861;32;20313;-74
2021/08/24 12:28:18;;;;;;;0.40;0.40;;;26.40;80.10;;;;;;4390906;32;20098;-78
2021/08/24 12:31:02;;;;;;;2.10;0.52;;;26.50;80.00;;;;;;4389064;32;20131;-74
2021/08/24 12:33:38;;;;;;;0.00;0.00;;;27.00;78.80;;;;;;4393287;32;20082;-74
2021/08/24 12:36:24;;;;;;;0.17;0.17;;;26.80;77.40;;;;;;4390304;32;20090;-74
2021/08/24 12:38:58;;;;;;;0.20;0.20;;;27.10;79.20;;;;;;4377286;32;20147;-74
2021/08/24 12:41:42;;;;;;;0.00;0.00;;;27.20;78.30;;;;;;4391203;32;20073;-74
2021/08/24 12:44:19;;;;;;;1.35;0.30;;;27.00;75.50;;;;;;4398645;32;20059;-75
2021/08/24 12:46:46;;;;;;;2.75;0.35;;;25.90;80.10;;;;;;4392485;32;20135;-75
2021/08/24 12:49:19;;;;;;;4.20;0.52;;;25.60;82.90;;;;;;4395356;32;20496;-75
2021/08/24 12:51:48;;;;;;;0.30;0.30;;;24.90;84.60;;;;;;4393804;32;20089;-75
2021/08/24 12:54:17;;;;;;;2.45;0.35;;;24.60;84.40;;;;;;4394895;32;20062;-74
2021/08/24 12:56:46;;;;;;;0.30;0.25;;;25.10;82.10;;;;;;4392275;32;20423;-74
2021/08/24 12:59:34;;;;;;;0.20;0.20;;;26.00;77.50;;;;;;4387846;32;20117;-74
2021/08/24 13:02:22;;;;;;;0.20;0.20;;;26.60;76.40;;;;;;4380244;32;20081;-75
2021/08/24 13:04:52;;;;;;;0.55;0.28;;;27.20;74.40;;;;;;4385657;32;20094;-75
2021/08/24 13:07:31;;;;;;;0.50;0.50;;;27.90;73.00;;;;;;4396861;32;20166;-75